Terminal Aerodrome Forecast
Issued by NWS

Home | Current Version | Previous Version | Graphics & Text | Print | Product List | Glossary On
Versions: 1 2 3 4 5 6 7 8 9 10 11 12 13 14 15 16 17 18 19 20 21 22 23 24 25
000
FTUS43 KGRB 281956 AAA
TAFCWA
TAF AMD
KCWA 281956Z 2820/2918 19009KT P6SM SCT040 BKN070
      TEMPO 2822/2902 5SM -SHRA BR BKN040
     FM290200 VRB03KT P6SM BKN040 BKN080
     FM290600 VRB03KT 4SM BR SCT020 BKN040
     FM290800 VRB03KT 2SM BR SCT008 BKN030
      TEMPO 2908/2912 1/2SM FG BKN008
     FM291200 VRB03KT 5SM BR SCT010 BKN040=

USA.gov is the U.S. government's official web portal to all federal, state and local government web resources and services.